sensor_id;sensor_type;location;lat;lon;timestamp;P1;durP1;ratioP1;P2;durP2;ratioP2
40955;SDS011;26687;48.254;11.454;2023-12-28T00:02:21;7.78;;;6.97;;
40955;SDS011;26687;48.254;11.454;2023-12-28T00:05:22;7.40;;;6.63;;
40955;SDS011;26687;48.254;11.454;2023-12-28T00:08:22;7.15;;;6.05;;
40955;SDS011;26687;48.254;11.454;2023-12-28T00:11:22;5.20;;;4.70;;
40955;SDS011;26687;48.254;11.454;2023-12-28T00:14:23;7.43;;;5.75;;
40955;SDS011;26687;48.254;11.454;2023-12-28T00:17:23;5.57;;;4.93;;
40955;SDS011;26687;48.254;11.454;2023-12-28T00:20:23;5.10;;;4.60;;
40955;SDS011;26687;48.254;11.454;2023-12-28T00:23:23;5.10;;;4.30;;
40955;SDS011;26687;48.254;11.454;2023-12-28T00:26:24;5.60;;;4.05;;
40955;SDS011;26687;48.254;11.454;2023-12-28T00:29:24;5.47;;;3.87;;
40955;SDS011;26687;48.254;11.454;2023-12-28T00:32:24;4.40;;;3.92;;
40955;SDS011;26687;48.254;11.454;2023-12-28T00:35:24;4.22;;;3.75;;
40955;SDS011;26687;48.254;11.454;2023-12-28T00:38:24;4.25;;;3.60;;
40955;SDS011;26687;48.254;11.454;2023-12-28T00:41:25;4.25;;;3.85;;
40955;SDS011;26687;48.254;11.454;2023-12-28T00:44:25;4.30;;;3.90;;
40955;SDS011;26687;48.254;11.454;2023-12-28T00:47:25;5.13;;;4.00;;
40955;SDS011;26687;48.254;11.454;2023-12-28T00:50:25;4.25;;;3.85;;
40955;SDS011;26687;48.254;11.454;2023-12-28T00:53:27;4.05;;;3.63;;
40955;SDS011;26687;48.254;11.454;2023-12-28T00:56:27;4.77;;;4.20;;
40955;SDS011;26687;48.254;11.454;2023-12-28T00:59:27;4.38;;;3.60;;
40955;SDS011;26687;48.254;11.454;2023-12-28T01:02:27;4.97;;;4.40;;
40955;SDS011;26687;48.254;11.454;2023-12-28T01:05:28;4.75;;;4.20;;
40955;SDS011;26687;48.254;11.454;2023-12-28T01:08:28;5.63;;;4.25;;
40955;SDS011;26687;48.254;11.454;2023-12-28T01:11:29;3.85;;;3.50;;
40955;SDS011;26687;48.254;11.454;2023-12-28T01:14:29;3.78;;;3.30;;
40955;SDS011;26687;48.254;11.454;2023-12-28T01:17:29;4.18;;;3.25;;
40955;SDS011;26687;48.254;11.454;2023-12-28T01:20:29;4.37;;;3.83;;
40955;SDS011;26687;48.254;11.454;2023-12-28T01:23:29;3.28;;;2.97;;
40955;SDS011;26687;48.254;11.454;2023-12-28T01:26:29;3.90;;;3.50;;
40955;SDS011;26687;48.254;11.454;2023-12-28T01:29:30;4.03;;;3.38;;
40955;SDS011;26687;48.254;11.454;2023-12-28T01:32:30;3.73;;;3.37;;
40955;SDS011;26687;48.254;11.454;2023-12-28T01:35:30;4.55;;;3.63;;
40955;SDS011;26687;48.254;11.454;2023-12-28T01:38:30;4.00;;;3.40;;
40955;SDS011;26687;48.254;11.454;2023-12-28T01:41:30;4.80;;;4.00;;
40955;SDS011;26687;48.254;11.454;2023-12-28T01:44:31;4.80;;;3.80;;
40955;SDS011;26687;48.254;11.454;2023-12-28T01:47:31;4.83;;;4.10;;
40955;SDS011;26687;48.254;11.454;2023-12-28T01:50:31;6.95;;;4.38;;
40955;SDS011;26687;48.254;11.454;2023-12-28T01:53:31;4.18;;;3.78;;
40955;SDS011;26687;48.254;11.454;2023-12-28T01:56:32;5.45;;;3.90;;
40955;SDS011;26687;48.254;11.454;2023-12-28T01:59:32;7.38;;;4.82;;
40955;SDS011;26687;48.254;11.454;2023-12-28T02:02:32;4.88;;;4.25;;
40955;SDS011;26687;48.254;11.454;2023-12-28T02:05:33;5.20;;;4.30;;
40955;SDS011;26687;48.254;11.454;2023-12-28T02:08:34;4.72;;;4.22;;
40955;SDS011;26687;48.254;11.454;2023-12-28T02:11:34;5.43;;;3.83;;
40955;SDS011;26687;48.254;11.454;2023-12-28T02:14:34;4.20;;;3.80;;
40955;SDS011;26687;48.254;11.454;2023-12-28T02:17:36;4.80;;;4.30;;
40955;SDS011;26687;48.254;11.454;2023-12-28T02:20:37;5.85;;;4.35;;
40955;SDS011;26687;48.254;11.454;2023-12-28T02:23:38;5.25;;;3.85;;
40955;SDS011;26687;48.254;11.454;2023-12-28T02:26:39;4.47;;;3.90;;
40955;SDS011;26687;48.254;11.454;2023-12-28T02:29:39;5.13;;;3.90;;
40955;SDS011;26687;48.254;11.454;2023-12-28T02:35:59;4.18;;;3.78;;
40955;SDS011;26687;48.254;11.454;2023-12-28T02:39:01;5.00;;;3.53;;
40955;SDS011;26687;48.254;11.454;2023-12-28T02:42:03;3.92;;;3.53;;
40955;SDS011;26687;48.254;11.454;2023-12-28T02:45:04;4.45;;;3.42;;
40955;SDS011;26687;48.254;11.454;2023-12-28T02:48:05;4.32;;;3.70;;
40955;SDS011;26687;48.254;11.454;2023-12-28T02:51:05;4.05;;;3.60;;
40955;SDS011;26687;48.254;11.454;2023-12-28T02:54:05;4.95;;;3.38;;
40955;SDS011;26687;48.254;11.454;2023-12-28T02:57:05;4.30;;;3.57;;
40955;SDS011;26687;48.254;11.454;2023-12-28T03:00:06;3.90;;;3.30;;
40955;SDS011;26687;48.254;11.454;2023-12-28T03:03:08;4.30;;;3.10;;
40955;SDS011;26687;48.254;11.454;2023-12-28T03:06:08;4.45;;;3.50;;
40955;SDS011;26687;48.254;11.454;2023-12-28T03:09:08;4.95;;;3.00;;
40955;SDS011;26687;48.254;11.454;2023-12-28T03:12:09;3.83;;;3.27;;
40955;SDS011;26687;48.254;11.454;2023-12-28T03:15:09;3.72;;;3.10;;
40955;SDS011;26687;48.254;11.454;2023-12-28T03:18:09;3.57;;;3.27;;
40955;SDS011;26687;48.254;11.454;2023-12-28T03:21:09;3.22;;;2.88;;
40955;SDS011;26687;48.254;11.454;2023-12-28T03:24:09;4.00;;;3.15;;
40955;SDS011;26687;48.254;11.454;2023-12-28T03:27:09;3.42;;;3.10;;
40955;SDS011;26687;48.254;11.454;2023-12-28T03:30:10;4.35;;;3.10;;
40955;SDS011;26687;48.254;11.454;2023-12-28T03:33:10;3.03;;;2.72;;
40955;SDS011;26687;48.254;11.454;2023-12-28T03:36:17;3.42;;;3.13;;
40955;SDS011;26687;48.254;11.454;2023-12-28T03:39:17;3.47;;;3.17;;
40955;SDS011;26687;48.254;11.454;2023-12-28T03:42:17;2.90;;;2.57;;
40955;SDS011;26687;48.254;11.454;2023-12-28T03:45:17;3.67;;;3.23;;
40955;SDS011;26687;48.254;11.454;2023-12-28T03:48:18;4.25;;;2.95;;
40955;SDS011;26687;48.254;11.454;2023-12-28T03:51:18;3.55;;;2.90;;
40955;SDS011;26687;48.254;11.454;2023-12-28T03:54:18;2.90;;;2.60;;
40955;SDS011;26687;48.254;11.454;2023-12-28T03:57:19;3.70;;;3.03;;
40955;SDS011;26687;48.254;11.454;2023-12-28T04:00:19;3.80;;;2.50;;
40955;SDS011;26687;48.254;11.454;2023-12-28T04:03:21;3.83;;;2.90;;
40955;SDS011;26687;48.254;11.454;2023-12-28T04:06:21;5.83;;;2.93;;
40955;SDS011;26687;48.254;11.454;2023-12-28T04:09:21;3.20;;;2.90;;
40955;SDS011;26687;48.254;11.454;2023-12-28T04:12:21;3.10;;;2.80;;
40955;SDS011;26687;48.254;11.454;2023-12-28T04:15:21;3.92;;;2.88;;
40955;SDS011;26687;48.254;11.454;2023-12-28T04:18:21;3.17;;;2.88;;
40955;SDS011;26687;48.254;11.454;2023-12-28T04:21:22;4.15;;;3.03;;
40955;SDS011;26687;48.254;11.454;2023-12-28T04:24:22;4.00;;;2.83;;
40955;SDS011;26687;48.254;11.454;2023-12-28T04:27:22;4.13;;;3.20;;
40955;SDS011;26687;48.254;11.454;2023-12-28T04:30:22;6.90;;;4.05;;
40955;SDS011;26687;48.254;11.454;2023-12-28T04:33:22;6.63;;;3.97;;
40955;SDS011;26687;48.254;11.454;2023-12-28T04:36:22;5.93;;;4.20;;
40955;SDS011;26687;48.254;11.454;2023-12-28T04:39:23;4.72;;;3.83;;
40955;SDS011;26687;48.254;11.454;2023-12-28T04:42:23;4.45;;;3.53;;
40955;SDS011;26687;48.254;11.454;2023-12-28T04:45:23;6.35;;;3.70;;
40955;SDS011;26687;48.254;11.454;2023-12-28T04:48:23;5.90;;;4.00;;
40955;SDS011;26687;48.254;11.454;2023-12-28T04:51:25;4.28;;;3.55;;
40955;SDS011;26687;48.254;11.454;2023-12-28T04:54:26;4.53;;;3.50;;
40955;SDS011;26687;48.254;11.454;2023-12-28T04:57:26;5.10;;;3.33;;
40955;SDS011;26687;48.254;11.454;2023-12-28T05:00:27;3.97;;;3.15;;
40955;SDS011;26687;48.254;11.454;2023-12-28T05:03:28;3.60;;;3.03;;
40955;SDS011;26687;48.254;11.454;2023-12-28T05:06:28;3.60;;;2.88;;
40955;SDS011;26687;48.254;11.454;2023-12-28T05:09:29;4.25;;;3.03;;
40955;SDS011;26687;48.254;11.454;2023-12-28T05:12:29;3.20;;;2.83;;
40955;SDS011;26687;48.254;11.454;2023-12-28T05:15:29;3.35;;;2.83;;
40955;SDS011;26687;48.254;11.454;2023-12-28T05:18:30;3.13;;;2.60;;
40955;SDS011;26687;48.254;11.454;2023-12-28T05:21:30;3.10;;;2.53;;
40955;SDS011;26687;48.254;11.454;2023-12-28T05:24:30;4.03;;;2.53;;
40955;SDS011;26687;48.254;11.454;2023-12-28T05:27:30;3.27;;;2.60;;
40955;SDS011;26687;48.254;11.454;2023-12-28T05:30:30;3.65;;;2.50;;
40955;SDS011;26687;48.254;11.454;2023-12-28T05:33:30;2.90;;;2.25;;
40955;SDS011;26687;48.254;11.454;2023-12-28T05:36:31;3.15;;;2.53;;
40955;SDS011;26687;48.254;11.454;2023-12-28T05:39:31;3.77;;;2.67;;
40955;SDS011;26687;48.254;11.454;2023-12-28T05:42:31;4.85;;;3.38;;
40955;SDS011;26687;48.254;11.454;2023-12-28T05:45:31;3.10;;;2.78;;
40955;SDS011;26687;48.254;11.454;2023-12-28T05:48:31;2.90;;;2.53;;
40955;SDS011;26687;48.254;11.454;2023-12-28T05:51:41;3.13;;;2.42;;
40955;SDS011;26687;48.254;11.454;2023-12-28T05:54:41;2.60;;;2.17;;
40955;SDS011;26687;48.254;11.454;2023-12-28T05:57:43;2.83;;;1.95;;
40955;SDS011;26687;48.254;11.454;2023-12-28T06:00:44;2.67;;;2.10;;
40955;SDS011;26687;48.254;11.454;2023-12-28T06:03:46;2.88;;;2.30;;
40955;SDS011;26687;48.254;11.454;2023-12-28T06:06:49;2.40;;;2.20;;
40955;SDS011;26687;48.254;11.454;2023-12-28T06:09:49;2.53;;;2.22;;
40955;SDS011;26687;48.254;11.454;2023-12-28T06:12:50;2.20;;;1.83;;
40955;SDS011;26687;48.254;11.454;2023-12-28T06:15:50;2.60;;;2.10;;
40955;SDS011;26687;48.254;11.454;2023-12-28T06:18:50;3.63;;;2.40;;
40955;SDS011;26687;48.254;11.454;2023-12-28T06:21:50;3.05;;;2.15;;
40955;SDS011;26687;48.254;11.454;2023-12-28T06:24:50;2.30;;;2.10;;
40955;SDS011;26687;48.254;11.454;2023-12-28T06:27:50;2.20;;;2.00;;
40955;SDS011;26687;48.254;11.454;2023-12-28T06:30:51;2.80;;;2.50;;
40955;SDS011;26687;48.254;11.454;2023-12-28T06:33:52;4.38;;;2.85;;
40955;SDS011;26687;48.254;11.454;2023-12-28T06:36:52;2.97;;;2.40;;
40955;SDS011;26687;48.254;11.454;2023-12-28T06:39:53;2.67;;;2.20;;
40955;SDS011;26687;48.254;11.454;2023-12-28T06:42:53;2.85;;;2.42;;
40955;SDS011;26687;48.254;11.454;2023-12-28T06:45:53;3.90;;;2.40;;
40955;SDS011;26687;48.254;11.454;2023-12-28T06:48:53;2.50;;;2.30;;
40955;SDS011;26687;48.254;11.454;2023-12-28T06:51:53;2.83;;;2.30;;
40955;SDS011;26687;48.254;11.454;2023-12-28T06:54:53;4.50;;;2.70;;
40955;SDS011;26687;48.254;11.454;2023-12-28T06:57:54;3.07;;;2.57;;
40955;SDS011;26687;48.254;11.454;2023-12-28T07:00:54;2.80;;;2.25;;
40955;SDS011;26687;48.254;11.454;2023-12-28T07:03:57;3.08;;;2.75;;
40955;SDS011;26687;48.254;11.454;2023-12-28T07:06:59;4.03;;;2.97;;
40955;SDS011;26687;48.254;11.454;2023-12-28T07:09:59;4.50;;;3.05;;
40955;SDS011;26687;48.254;11.454;2023-12-28T07:12:59;4.03;;;3.35;;
40955;SDS011;26687;48.254;11.454;2023-12-28T07:15:59;4.63;;;3.63;;
40955;SDS011;26687;48.254;11.454;2023-12-28T07:19:00;6.15;;;3.63;;
40955;SDS011;26687;48.254;11.454;2023-12-28T07:22:00;4.63;;;3.92;;
40955;SDS011;26687;48.254;11.454;2023-12-28T07:25:00;4.22;;;3.63;;
40955;SDS011;26687;48.254;11.454;2023-12-28T07:28:00;5.15;;;3.85;;
40955;SDS011;26687;48.254;11.454;2023-12-28T07:31:00;5.35;;;4.05;;
40955;SDS011;26687;48.254;11.454;2023-12-28T07:34:01;4.63;;;3.60;;
40955;SDS011;26687;48.254;11.454;2023-12-28T07:37:01;6.97;;;4.07;;
40955;SDS011;26687;48.254;11.454;2023-12-28T07:40:01;4.22;;;3.55;;
40955;SDS011;26687;48.254;11.454;2023-12-28T07:43:03;4.75;;;3.47;;
40955;SDS011;26687;48.254;11.454;2023-12-28T07:46:03;5.72;;;3.40;;
40955;SDS011;26687;48.254;11.454;2023-12-28T07:49:03;7.35;;;5.07;;
40955;SDS011;26687;48.254;11.454;2023-12-28T07:52:04;6.63;;;5.38;;
40955;SDS011;26687;48.254;11.454;2023-12-28T07:55:04;7.93;;;5.22;;
40955;SDS011;26687;48.254;11.454;2023-12-28T07:58:04;5.50;;;4.10;;
40955;SDS011;26687;48.254;11.454;2023-12-28T08:01:09;4.03;;;3.63;;
40955;SDS011;26687;48.254;11.454;2023-12-28T08:04:09;4.65;;;3.72;;
40955;SDS011;26687;48.254;11.454;2023-12-28T08:07:09;4.15;;;3.47;;
40955;SDS011;26687;48.254;11.454;2023-12-28T08:10:09;5.30;;;3.33;;
40955;SDS011;26687;48.254;11.454;2023-12-28T08:13:10;4.43;;;3.20;;
40955;SDS011;26687;48.254;11.454;2023-12-28T08:16:10;3.85;;;3.10;;
40955;SDS011;26687;48.254;11.454;2023-12-28T08:19:10;3.70;;;3.00;;
40955;SDS011;26687;48.254;11.454;2023-12-28T08:22:10;3.83;;;3.40;;
40955;SDS011;26687;48.254;11.454;2023-12-28T08:25:11;4.13;;;3.00;;
40955;SDS011;26687;48.254;11.454;2023-12-28T08:28:11;3.28;;;2.80;;
40955;SDS011;26687;48.254;11.454;2023-12-28T08:31:12;5.10;;;2.50;;
40955;SDS011;26687;48.254;11.454;2023-12-28T08:34:13;3.22;;;2.50;;
40955;SDS011;26687;48.254;11.454;2023-12-28T08:37:13;4.05;;;2.90;;
40955;SDS011;26687;48.254;11.454;2023-12-28T08:40:14;2.45;;;1.70;;
40955;SDS011;26687;48.254;11.454;2023-12-28T08:43:14;4.60;;;1.95;;
40955;SDS011;26687;48.254;11.454;2023-12-28T08:46:14;2.83;;;1.52;;
40955;SDS011;26687;48.254;11.454;2023-12-28T08:49:15;2.22;;;1.50;;
40955;SDS011;26687;48.254;11.454;2023-12-28T08:52:15;1.98;;;1.38;;
40955;SDS011;26687;48.254;11.454;2023-12-28T08:55:15;2.50;;;1.20;;
40955;SDS011;26687;48.254;11.454;2023-12-28T08:58:16;1.50;;;1.10;;
40955;SDS011;26687;48.254;11.454;2023-12-28T09:01:17;2.10;;;1.10;;
40955;SDS011;26687;48.254;11.454;2023-12-28T09:04:17;1.52;;;1.40;;
40955;SDS011;26687;48.254;11.454;2023-12-28T09:07:18;1.05;;;0.95;;
40955;SDS011;26687;48.254;11.454;2023-12-28T09:10:19;4.13;;;1.52;;
40955;SDS011;26687;48.254;11.454;2023-12-28T09:13:19;2.00;;;1.30;;
40955;SDS011;26687;48.254;11.454;2023-12-28T09:16:20;2.17;;;1.03;;
40955;SDS011;26687;48.254;11.454;2023-12-28T09:19:20;2.47;;;1.20;;
40955;SDS011;26687;48.254;11.454;2023-12-28T09:22:20;1.77;;;1.13;;
40955;SDS011;26687;48.254;11.454;2023-12-28T09:25:20;1.13;;;1.00;;
40955;SDS011;26687;48.254;11.454;2023-12-28T09:28:20;1.27;;;1.08;;
40955;SDS011;26687;48.254;11.454;2023-12-28T09:31:20;4.60;;;1.15;;
40955;SDS011;26687;48.254;11.454;2023-12-28T09:34:21;2.00;;;1.10;;
40955;SDS011;26687;48.254;11.454;2023-12-28T09:37:21;1.80;;;1.03;;
40955;SDS011;26687;48.254;11.454;2023-12-28T09:40:21;1.20;;;1.10;;
40955;SDS011;26687;48.254;11.454;2023-12-28T09:43:26;2.50;;;1.20;;
40955;SDS011;26687;48.254;11.454;2023-12-28T09:46:26;1.35;;;1.10;;
40955;SDS011;26687;48.254;11.454;2023-12-28T09:49:27;1.23;;;1.00;;
40955;SDS011;26687;48.254;11.454;2023-12-28T09:52:28;1.35;;;1.08;;
40955;SDS011;26687;48.254;11.454;2023-12-28T09:55:28;2.55;;;1.15;;
40955;SDS011;26687;48.254;11.454;2023-12-28T09:58:29;1.75;;;0.93;;
40955;SDS011;26687;48.254;11.454;2023-12-28T10:01:31;2.47;;;1.23;;
40955;SDS011;26687;48.254;11.454;2023-12-28T10:04:32;1.10;;;0.90;;
40955;SDS011;26687;48.254;11.454;2023-12-28T10:07:32;0.82;;;0.73;;
40955;SDS011;26687;48.254;11.454;2023-12-28T10:10:32;1.23;;;1.00;;
40955;SDS011;26687;48.254;11.454;2023-12-28T10:13:33;1.17;;;0.77;;
40955;SDS011;26687;48.254;11.454;2023-12-28T10:16:33;0.90;;;0.80;;
40955;SDS011;26687;48.254;11.454;2023-12-28T10:19:33;1.77;;;1.05;;
40955;SDS011;26687;48.254;11.454;2023-12-28T10:22:34;1.30;;;0.90;;
40955;SDS011;26687;48.254;11.454;2023-12-28T10:25:35;1.90;;;0.80;;
40955;SDS011;26687;48.254;11.454;2023-12-28T10:28:36;1.50;;;1.08;;
40955;SDS011;26687;48.254;11.454;2023-12-28T10:31:41;1.38;;;0.75;;
40955;SDS011;26687;48.254;11.454;2023-12-28T10:34:41;2.70;;;1.10;;
40955;SDS011;26687;48.254;11.454;2023-12-28T10:37:42;0.93;;;0.82;;
40955;SDS011;26687;48.254;11.454;2023-12-28T10:40:44;1.10;;;1.00;;
40955;SDS011;26687;48.254;11.454;2023-12-28T10:43:53;1.52;;;1.10;;
40955;SDS011;26687;48.254;11.454;2023-12-28T10:46:57;1.02;;;0.70;;
40955;SDS011;26687;48.254;11.454;2023-12-28T10:50:03;1.17;;;0.90;;
40955;SDS011;26687;48.254;11.454;2023-12-28T10:59:43;2.33;;;1.50;;
40955;SDS011;26687;48.254;11.454;2023-12-28T11:02:47;3.90;;;1.58;;
40955;SDS011;26687;48.254;11.454;2023-12-28T11:05:51;4.72;;;4.13;;
40955;SDS011;26687;48.254;11.454;2023-12-28T11:08:52;3.22;;;1.63;;
40955;SDS011;26687;48.254;11.454;2023-12-28T11:11:54;1.40;;;1.30;;
40955;SDS011;26687;48.254;11.454;2023-12-28T11:14:55;3.92;;;1.30;;
40955;SDS011;26687;48.254;11.454;2023-12-28T11:17:55;2.17;;;1.67;;
40955;SDS011;26687;48.254;11.454;2023-12-28T11:20:55;2.67;;;1.30;;
40955;SDS011;26687;48.254;11.454;2023-12-28T11:23:56;1.90;;;1.13;;
40955;SDS011;26687;48.254;11.454;2023-12-28T11:26:57;2.78;;;1.20;;
40955;SDS011;26687;48.254;11.454;2023-12-28T11:29:57;2.07;;;1.50;;
40955;SDS011;26687;48.254;11.454;2023-12-28T11:32:57;1.83;;;1.00;;
40955;SDS011;26687;48.254;11.454;2023-12-28T11:35:58;2.47;;;2.28;;
40955;SDS011;26687;48.254;11.454;2023-12-28T11:39:01;1.88;;;1.70;;
40955;SDS011;26687;48.254;11.454;2023-12-28T11:42:10;1.33;;;1.13;;
40955;SDS011;26687;48.254;11.454;2023-12-28T11:45:11;1.90;;;1.00;;
40955;SDS011;26687;48.254;11.454;2023-12-28T11:48:11;1.17;;;1.00;;
40955;SDS011;26687;48.254;11.454;2023-12-28T11:51:21;1.52;;;1.15;;
40955;SDS011;26687;48.254;11.454;2023-12-28T11:54:23;1.20;;;0.75;;
40955;SDS011;26687;48.254;11.454;2023-12-28T11:57:23;0.93;;;0.82;;
40955;SDS011;26687;48.254;11.454;2023-12-28T12:00:24;1.10;;;0.87;;
40955;SDS011;26687;48.254;11.454;2023-12-28T12:03:25;1.00;;;0.80;;
40955;SDS011;26687;48.254;11.454;2023-12-28T12:06:26;1.80;;;1.10;;
40955;SDS011;26687;48.254;11.454;2023-12-28T12:09:26;1.20;;;0.82;;
40955;SDS011;26687;48.254;11.454;2023-12-28T12:12:27;1.75;;;0.68;;
40955;SDS011;26687;48.254;11.454;2023-12-28T12:15:27;1.07;;;0.70;;
40955;SDS011;26687;48.254;11.454;2023-12-28T12:18:29;1.20;;;0.90;;
40955;SDS011;26687;48.254;11.454;2023-12-28T12:21:29;1.48;;;0.90;;
40955;SDS011;26687;48.254;11.454;2023-12-28T12:24:29;1.38;;;0.63;;
40955;SDS011;26687;48.254;11.454;2023-12-28T12:27:31;1.30;;;0.75;;
40955;SDS011;26687;48.254;11.454;2023-12-28T12:30:31;1.30;;;0.75;;
40955;SDS011;26687;48.254;11.454;2023-12-28T12:33:31;1.00;;;0.83;;
40955;SDS011;26687;48.254;11.454;2023-12-28T12:36:31;1.73;;;1.00;;
40955;SDS011;26687;48.254;11.454;2023-12-28T12:39:32;1.27;;;0.85;;
40955;SDS011;26687;48.254;11.454;2023-12-28T12:42:33;1.25;;;0.90;;
40955;SDS011;26687;48.254;11.454;2023-12-28T12:45:33;2.58;;;1.10;;
40955;SDS011;26687;48.254;11.454;2023-12-28T12:48:33;1.77;;;1.20;;
40955;SDS011;26687;48.254;11.454;2023-12-28T12:51:33;4.10;;;1.00;;
40955;SDS011;26687;48.254;11.454;2023-12-28T12:54:33;1.33;;;0.95;;
40955;SDS011;26687;48.254;11.454;2023-12-28T12:57:33;1.55;;;1.10;;
40955;SDS011;26687;48.254;11.454;2023-12-28T13:00:34;2.60;;;1.40;;
40955;SDS011;26687;48.254;11.454;2023-12-28T13:03:35;2.05;;;1.30;;
40955;SDS011;26687;48.254;11.454;2023-12-28T13:06:36;1.90;;;1.30;;
40955;SDS011;26687;48.254;11.454;2023-12-28T13:09:36;3.00;;;1.58;;
40955;SDS011;26687;48.254;11.454;2023-12-28T13:12:37;1.60;;;1.13;;
40955;SDS011;26687;48.254;11.454;2023-12-28T13:15:37;1.67;;;1.10;;
40955;SDS011;26687;48.254;11.454;2023-12-28T13:18:37;1.40;;;0.73;;
40955;SDS011;26687;48.254;11.454;2023-12-28T13:21:37;1.03;;;0.70;;
40955;SDS011;26687;48.254;11.454;2023-12-28T13:24:37;1.10;;;1.00;;
40955;SDS011;26687;48.254;11.454;2023-12-28T13:27:37;1.70;;;1.00;;
40955;SDS011;26687;48.254;11.454;2023-12-28T13:30:38;1.57;;;0.90;;
40955;SDS011;26687;48.254;11.454;2023-12-28T13:33:38;1.38;;;0.90;;
40955;SDS011;26687;48.254;11.454;2023-12-28T13:36:38;0.77;;;0.73;;
40955;SDS011;26687;48.254;11.454;2023-12-28T13:39:38;1.35;;;0.90;;
40955;SDS011;26687;48.254;11.454;2023-12-28T13:42:39;1.00;;;0.90;;
40955;SDS011;26687;48.254;11.454;2023-12-28T13:45:39;1.83;;;0.80;;
40955;SDS011;26687;48.254;11.454;2023-12-28T13:48:39;1.10;;;0.88;;
40955;SDS011;26687;48.254;11.454;2023-12-28T13:51:39;2.75;;;1.10;;
40955;SDS011;26687;48.254;11.454;2023-12-28T13:54:39;1.27;;;0.75;;
40955;SDS011;26687;48.254;11.454;2023-12-28T13:57:40;1.40;;;0.90;;
40955;SDS011;26687;48.254;11.454;2023-12-28T14:00:41;1.08;;;0.80;;
40955;SDS011;26687;48.254;11.454;2023-12-28T14:03:41;1.40;;;1.10;;
40955;SDS011;26687;48.254;11.454;2023-12-28T14:06:41;1.40;;;1.15;;
40955;SDS011;26687;48.254;11.454;2023-12-28T14:09:41;1.85;;;1.17;;
40955;SDS011;26687;48.254;11.454;2023-12-28T14:12:41;1.77;;;1.47;;
40955;SDS011;26687;48.254;11.454;2023-12-28T14:15:42;1.38;;;0.98;;
40955;SDS011;26687;48.254;11.454;2023-12-28T14:18:42;2.57;;;1.37;;
40955;SDS011;26687;48.254;11.454;2023-12-28T14:21:42;1.90;;;1.25;;
40955;SDS011;26687;48.254;11.454;2023-12-28T14:24:43;1.70;;;1.60;;
40955;SDS011;26687;48.254;11.454;2023-12-28T14:27:43;2.97;;;1.60;;
40955;SDS011;26687;48.254;11.454;2023-12-28T14:30:43;2.55;;;1.63;;
40955;SDS011;26687;48.254;11.454;2023-12-28T14:33:45;3.35;;;1.95;;
40955;SDS011;26687;48.254;11.454;2023-12-28T14:36:45;1.40;;;1.30;;
40955;SDS011;26687;48.254;11.454;2023-12-28T14:39:50;2.05;;;1.50;;
40955;SDS011;26687;48.254;11.454;2023-12-28T14:42:50;2.20;;;2.00;;
40955;SDS011;26687;48.254;11.454;2023-12-28T14:45:50;2.37;;;1.90;;
40955;SDS011;26687;48.254;11.454;2023-12-28T14:48:52;2.45;;;2.15;;
40955;SDS011;26687;48.254;11.454;2023-12-28T14:51:52;2.83;;;2.25;;
40955;SDS011;26687;48.254;11.454;2023-12-28T14:54:52;3.60;;;2.25;;
40955;SDS011;26687;48.254;11.454;2023-12-28T14:57:56;4.18;;;2.90;;
40955;SDS011;26687;48.254;11.454;2023-12-28T15:00:56;3.75;;;3.42;;
40955;SDS011;26687;48.254;11.454;2023-12-28T15:03:56;3.20;;;2.65;;
40955;SDS011;26687;48.254;11.454;2023-12-28T15:06:57;3.97;;;3.33;;
40955;SDS011;26687;48.254;11.454;2023-12-28T15:09:57;3.67;;;3.30;;
40955;SDS011;26687;48.254;11.454;2023-12-28T15:12:58;5.80;;;2.60;;
40955;SDS011;26687;48.254;11.454;2023-12-28T15:15:58;2.60;;;2.40;;
40955;SDS011;26687;48.254;11.454;2023-12-28T15:18:58;4.03;;;2.60;;
40955;SDS011;26687;48.254;11.454;2023-12-28T15:21:59;2.90;;;2.50;;
40955;SDS011;26687;48.254;11.454;2023-12-28T15:25:00;3.35;;;3.03;;
40955;SDS011;26687;48.254;11.454;2023-12-28T15:28:00;4.95;;;3.33;;
40955;SDS011;26687;48.254;11.454;2023-12-28T15:31:00;4.70;;;3.50;;
40955;SDS011;26687;48.254;11.454;2023-12-28T15:34:00;4.55;;;3.42;;
40955;SDS011;26687;48.254;11.454;2023-12-28T15:37:00;4.00;;;3.40;;
40955;SDS011;26687;48.254;11.454;2023-12-28T15:40:00;4.03;;;3.05;;
40955;SDS011;26687;48.254;11.454;2023-12-28T15:43:01;3.83;;;2.97;;
40955;SDS011;26687;48.254;11.454;2023-12-28T15:46:01;3.67;;;2.80;;
40955;SDS011;26687;48.254;11.454;2023-12-28T15:49:01;3.85;;;3.35;;
40955;SDS011;26687;48.254;11.454;2023-12-28T15:52:01;3.83;;;2.92;;
40955;SDS011;26687;48.254;11.454;2023-12-28T15:55:01;3.72;;;2.70;;
40955;SDS011;26687;48.254;11.454;2023-12-28T15:58:02;3.55;;;3.00;;
40955;SDS011;26687;48.254;11.454;2023-12-28T16:01:03;4.50;;;4.10;;
40955;SDS011;26687;48.254;11.454;2023-12-28T16:04:03;8.57;;;6.68;;
40955;SDS011;26687;48.254;11.454;2023-12-28T16:07:03;7.63;;;6.20;;
40955;SDS011;26687;48.254;11.454;2023-12-28T16:10:04;8.70;;;6.43;;
40955;SDS011;26687;48.254;11.454;2023-12-28T16:13:05;7.57;;;5.40;;
40955;SDS011;26687;48.254;11.454;2023-12-28T16:16:05;8.85;;;5.93;;
40955;SDS011;26687;48.254;11.454;2023-12-28T16:19:06;6.32;;;4.93;;
40955;SDS011;26687;48.254;11.454;2023-12-28T16:22:06;7.50;;;4.27;;
40955;SDS011;26687;48.254;11.454;2023-12-28T16:25:07;3.83;;;3.42;;
40955;SDS011;26687;48.254;11.454;2023-12-28T16:28:07;3.83;;;3.07;;
40955;SDS011;26687;48.254;11.454;2023-12-28T16:31:07;4.15;;;3.40;;
40955;SDS011;26687;48.254;11.454;2023-12-28T16:34:07;4.28;;;3.20;;
40955;SDS011;26687;48.254;11.454;2023-12-28T16:37:07;5.83;;;3.70;;
40955;SDS011;26687;48.254;11.454;2023-12-28T16:40:07;5.25;;;4.40;;
40955;SDS011;26687;48.254;11.454;2023-12-28T16:43:08;6.75;;;5.10;;
40955;SDS011;26687;48.254;11.454;2023-12-28T16:46:08;6.75;;;5.57;;
40955;SDS011;26687;48.254;11.454;2023-12-28T16:49:08;7.70;;;5.43;;
40955;SDS011;26687;48.254;11.454;2023-12-28T16:52:08;6.40;;;5.43;;
40955;SDS011;26687;48.254;11.454;2023-12-28T16:55:08;5.10;;;4.60;;
40955;SDS011;26687;48.254;11.454;2023-12-28T16:58:09;3.88;;;3.47;;
40955;SDS011;26687;48.254;11.454;2023-12-28T17:01:09;3.73;;;3.23;;
40955;SDS011;26687;48.254;11.454;2023-12-28T17:04:09;3.58;;;3.15;;
40955;SDS011;26687;48.254;11.454;2023-12-28T17:07:09;2.95;;;2.63;;
40955;SDS011;26687;48.254;11.454;2023-12-28T17:10:09;3.07;;;2.67;;
40955;SDS011;26687;48.254;11.454;2023-12-28T17:13:10;3.10;;;2.60;;
40955;SDS011;26687;48.254;11.454;2023-12-28T17:16:11;2.67;;;2.45;;
40955;SDS011;26687;48.254;11.454;2023-12-28T17:19:11;2.80;;;2.50;;
40955;SDS011;26687;48.254;11.454;2023-12-28T17:22:12;3.22;;;2.30;;
40955;SDS011;26687;48.254;11.454;2023-12-28T17:28:20;2.95;;;2.67;;
40955;SDS011;26687;48.254;11.454;2023-12-28T17:31:23;3.70;;;2.92;;
40955;SDS011;26687;48.254;11.454;2023-12-28T17:34:23;6.38;;;4.57;;
40955;SDS011;26687;48.254;11.454;2023-12-28T17:37:24;5.32;;;4.50;;
40955;SDS011;26687;48.254;11.454;2023-12-28T17:40:25;6.95;;;5.35;;
40955;SDS011;26687;48.254;11.454;2023-12-28T17:43:26;7.03;;;5.13;;
40955;SDS011;26687;48.254;11.454;2023-12-28T17:49:37;7.10;;;5.18;;
40955;SDS011;26687;48.254;11.454;2023-12-28T17:52:39;6.97;;;5.32;;
40955;SDS011;26687;48.254;11.454;2023-12-28T17:55:40;7.35;;;5.55;;
40955;SDS011;26687;48.254;11.454;2023-12-28T17:58:40;5.30;;;4.80;;
40955;SDS011;26687;48.254;11.454;2023-12-28T18:01:40;5.30;;;4.50;;
40955;SDS011;26687;48.254;11.454;2023-12-28T18:04:40;3.72;;;3.20;;
40955;SDS011;26687;48.254;11.454;2023-12-28T18:07:41;3.47;;;2.60;;